createdAt,value
2018-02-07T00:00:58.228Z,88.09
2018-02-07T00:02:07.916Z,88.37
2018-02-07T00:03:17.865Z,88.84
2018-02-07T00:04:27.557Z,88.65
2018-02-07T00:05:37.243Z,89.03
2018-02-07T00:06:47.189Z,88.93
2018-02-07T00:07:57.132Z,88.84
2018-02-07T00:09:06.822Z,88.84
2018-02-07T00:10:16.510Z,88.93
2018-02-07T00:11:26.459Z,89.88
2018-02-07T00:12:36.140Z,89.78
2018-02-07T00:13:45.569Z,89.31
2018-02-07T00:14:55.264Z,88.84
2018-02-07T00:16:04.961Z,89.31
2018-02-07T00:17:14.388Z,88.93
2018-02-07T00:18:24.085Z,89.69
2018-02-07T00:19:34.035Z,90.07
2018-02-07T00:20:43.969Z,90.16
2018-02-07T00:21:53.660Z,89.78
2018-02-07T00:23:03.615Z,89.78
2018-02-07T00:24:13.297Z,89.69
2018-02-07T00:25:22.997Z,90.73
2018-02-07T00:26:32.950Z,90.64
2018-02-07T00:27:42.894Z,90.73
2018-02-07T00:28:52.837Z,90.82
2018-02-07T00:30:02.269Z,90.64
2018-02-07T00:31:11.971Z,90.64
2018-02-07T00:32:21.916Z,90.73
2018-02-07T00:33:31.860Z,90.82
2018-02-07T00:34:41.819Z,92.05
2018-02-07T00:35:51.772Z,91.58
2018-02-07T00:37:01.719Z,91.01
2018-02-07T00:38:11.659Z,91.67
2018-02-07T00:39:21.601Z,91.67
2018-02-07T00:40:31.786Z,92.05
2018-02-07T00:41:41.762Z,92.14
2018-02-07T00:42:51.711Z,91.96
2018-02-07T00:44:01.652Z,91.86
2018-02-07T00:45:11.333Z,92.14
2018-02-07T00:46:21.316Z,91.96
2018-02-07T00:47:31.280Z,91.86
2018-02-07T00:48:41.231Z,91.86
2018-02-07T00:49:51.187Z,91.96
2018-02-07T00:51:01.137Z,92.71
2018-02-07T00:52:11.098Z,92.61
2018-02-07T00:53:20.787Z,92.52
2018-02-07T00:54:30.240Z,92.99
2018-02-07T00:55:40.175Z,92.8
2018-02-07T00:56:49.863Z,92.71
2018-02-07T00:57:59.817Z,92.52
2018-02-07T00:59:09.767Z,92.52
2018-02-07T01:00:19.485Z,92.61
2018-02-07T01:01:29.429Z,93.09
2018-02-07T01:02:39.362Z,93.18
2018-02-07T01:03:49.314Z,92.99
2018-02-07T01:04:59.262Z,92.61
2018-02-07T01:06:09.209Z,93.28
2018-02-07T01:07:18.906Z,93.37
2018-02-07T01:08:28.335Z,93.37
2018-02-07T01:09:38.024Z,92.71
2018-02-07T01:10:47.714Z,93.28
2018-02-07T01:11:57.661Z,93.28
2018-02-07T01:13:07.363Z,93.28
2018-02-07T01:14:17.324Z,93.47
2018-02-07T01:15:27.266Z,94.03
2018-02-07T01:16:37.257Z,93.75
2018-02-07T01:17:46.934Z,93.75
2018-02-07T01:18:56.875Z,93.66
2018-02-07T01:20:06.822Z,93.75
2018-02-07T01:21:16.510Z,93.47
2018-02-07T01:22:26.464Z,93.75
2018-02-07T01:23:36.399Z,93.94
2018-02-07T01:24:46.349Z,93.66
2018-02-07T01:25:56.296Z,94.22
2018-02-07T01:27:06.253Z,94.13
2018-02-07T01:28:16.182Z,94.03
2018-02-07T01:29:26.115Z,94.32
2018-02-07T01:30:36.061Z,94.89
2018-02-07T01:31:46.009Z,95.07
2018-02-07T01:32:55.952Z,95.17
2018-02-07T01:34:05.896Z,95.07
2018-02-07T01:35:15.831Z,95.17
2018-02-07T01:36:25.507Z,95.64
2018-02-07T01:37:35.202Z,95.36
2018-02-07T01:38:45.151Z,95.64
2018-02-07T01:39:55.110Z,95.26
2018-02-07T01:41:05.062Z,95.17
2018-02-07T01:42:15.015Z,95.26
2018-02-07T01:43:24.967Z,95.17
2018-02-07T01:44:34.919Z,95.36
2018-02-07T01:45:44.605Z,95.64
2018-02-07T01:46:54.303Z,95.45
2018-02-07T01:48:04.243Z,95.36
2018-02-07T01:49:14.182Z,95.45
2018-02-07T01:50:24.134Z,95.73
2018-02-07T01:51:34.068Z,95.64
2018-02-07T01:52:43.763Z,96.11
2018-02-07T01:53:53.446Z,96.01
2018-02-07T01:55:03.381Z,96.01
2018-02-07T01:56:13.317Z,95.83
2018-02-07T01:57:23.266Z,96.01
2018-02-07T01:58:32.945Z,95.92
2018-02-07T01:59:42.901Z,96.2
2018-02-07T02:00:52.856Z,96.11
2018-02-07T02:02:02.553Z,96.49
2018-02-07T02:03:12.486Z,96.2
2018-02-07T02:04:21.914Z,96.2
2018-02-07T02:05:31.857Z,96.2
2018-02-07T02:06:41.552Z,95.83
2018-02-07T02:07:51.235Z,96.86
2018-02-07T02:09:01.126Z,96.68
2018-02-07T02:10:11.057Z,96.96
2018-02-07T02:11:20.991Z,95.83
2018-02-07T02:12:30.948Z,96.11
2018-02-07T02:13:40.653Z,96.11
2018-02-07T02:14:50.602Z,96.96
2018-02-07T02:16:00.289Z,96.77
2018-02-07T02:17:10.230Z,96.96
2018-02-07T02:18:19.912Z,96.49
2018-02-07T02:19:29.850Z,96.68
2018-02-07T02:20:39.542Z,96.86
2018-02-07T02:21:49.496Z,96.86
2018-02-07T02:22:59.442Z,96.49
2018-02-07T02:24:09.382Z,96.49
2018-02-07T02:25:19.328Z,96.39
2018-02-07T02:26:29.277Z,96.2
2018-02-07T02:27:39.215Z,96.11
2018-02-07T02:28:49.155Z,96.11
2018-02-07T02:29:58.593Z,96.49
2018-02-07T02:31:08.536Z,96.2
2018-02-07T02:32:18.220Z,96.39
2018-02-07T02:33:27.902Z,96.3
2018-02-07T02:34:37.909Z,96.2
2018-02-07T02:35:47.857Z,96.2
2018-02-07T02:36:57.795Z,96.3
2018-02-07T02:38:07.236Z,96.11
2018-02-07T02:39:17.188Z,96.39
2018-02-07T02:40:27.124Z,95.83
2018-02-07T02:41:37.066Z,96.11
2018-02-07T02:42:46.512Z,95.92
2018-02-07T02:43:56.460Z,96.3
2018-02-07T02:45:06.199Z,96.2
2018-02-07T02:46:16.149Z,96.01
2018-02-07T02:47:26.084Z,96.2
2018-02-07T02:48:36.385Z,95.73
2018-02-07T02:49:46.066Z,96.01
2018-02-07T02:50:55.754Z,96.39
2018-02-07T02:52:05.702Z,96.2
2018-02-07T02:53:15.380Z,95.92
2018-02-07T02:54:25.326Z,95.73
2018-02-07T02:55:35.271Z,95.83
2018-02-07T02:56:44.709Z,96.3
2018-02-07T02:57:54.402Z,96.11
2018-02-07T02:59:04.080Z,95.83
2018-02-07T03:00:14.023Z,95.92
2018-02-07T03:01:23.969Z,95.83
2018-02-07T03:02:33.911Z,96.11
2018-02-07T03:03:43.906Z,96.86
2018-02-07T03:04:53.839Z,96.11
2018-02-07T03:06:03.850Z,96.96
2018-02-07T03:07:13.788Z,96.68
2018-02-07T03:08:23.777Z,96.77
2018-02-07T03:09:33.720Z,96.77
2018-02-07T03:10:43.409Z,97.15
2018-02-07T03:11:53.343Z,96.86
2018-02-07T03:13:03.290Z,96.96
2018-02-07T03:14:13.233Z,97.05
2018-02-07T03:15:22.911Z,96.86
2018-02-07T03:16:32.855Z,96.68
2018-02-07T03:17:42.805Z,97.05
2018-02-07T03:18:52.748Z,97.72
2018-02-07T03:20:02.203Z,97.24
2018-02-07T03:21:12.146Z,97.05
2018-02-07T03:22:21.328Z,97.15
2018-02-07T03:23:31.011Z,96.96
2018-02-07T03:24:40.696Z,97.72
2018-02-07T03:25:50.388Z,97.53
2018-02-07T03:27:00.328Z,97.53
2018-02-07T03:28:10.281Z,97.62
2018-02-07T03:29:20.223Z,97.81
2018-02-07T03:30:30.184Z,97.72
2018-02-07T03:31:40.180Z,97.72
2018-02-07T03:32:50.116Z,97.34
2018-02-07T03:34:00.064Z,97.43
2018-02-07T03:35:10.011Z,97.53
2018-02-07T03:36:19.947Z,97.62
2018-02-07T03:37:29.884Z,97.72
2018-02-07T03:38:39.565Z,97.53
2018-02-07T03:39:49.278Z,97.62
2018-02-07T03:40:58.985Z,97.24
2018-02-07T03:42:08.708Z,97.62
2018-02-07T03:43:18.703Z,97.53
2018-02-07T03:44:28.654Z,97.72
2018-02-07T03:45:38.599Z,97.34
2018-02-07T03:46:48.552Z,97.43
2018-02-07T03:47:58.232Z,97.53
2018-02-07T03:49:08.169Z,97.91
2018-02-07T03:50:18.110Z,97.72
2018-02-07T03:51:28.054Z,97.91
2018-02-07T03:52:37.984Z,97.24
2018-02-07T03:53:47.672Z,97.72
2018-02-07T03:54:57.367Z,97.34
2018-02-07T03:56:07.304Z,98.28
2018-02-07T03:57:16.992Z,97.81
2018-02-07T03:58:26.430Z,97.43
2018-02-07T03:59:36.126Z,97.34
2018-02-07T04:00:46.081Z,97.34
2018-02-07T04:01:55.775Z,97.53
2018-02-07T04:03:05.716Z,97.62
2018-02-07T04:04:15.649Z,97.72
2018-02-07T04:05:25.343Z,97.72
2018-02-07T04:06:35.296Z,97.53
2018-02-07T04:07:45.236Z,97.72
2018-02-07T04:08:55.170Z,97.72
2018-02-07T04:10:05.111Z,97.81
2018-02-07T04:11:15.048Z,97.72
2018-02-07T04:12:24.988Z,97.62
2018-02-07T04:13:34.922Z,97.91
2018-02-07T04:14:44.858Z,98.1
2018-02-07T04:15:54.808Z,98
2018-02-07T04:17:04.540Z,97.81
2018-02-07T04:18:14.274Z,98.85
2018-02-07T04:19:24.223Z,98.75
2018-02-07T04:20:33.902Z,98.75
2018-02-07T04:21:43.684Z,98.57
2018-02-07T04:22:53.617Z,97.91
2018-02-07T04:24:03.299Z,97.81
2018-02-07T04:25:13.244Z,97.81
2018-02-07T04:26:23.191Z,98
2018-02-07T04:27:33.132Z,97.53
2018-02-07T04:28:42.829Z,98.57
2018-02-07T04:29:52.514Z,98.75
2018-02-07T04:31:02.458Z,98.85
2018-02-07T04:32:12.403Z,98.75
2018-02-07T04:33:22.349Z,97.91
2018-02-07T04:34:32.025Z,97.72
2018-02-07T04:35:41.510Z,98.85
2018-02-07T04:36:51.444Z,99.04
2018-02-07T04:38:01.405Z,98.47
2018-02-07T04:39:11.372Z,97.62
2018-02-07T04:40:21.048Z,97.62
2018-02-07T04:41:30.748Z,98.75
2018-02-07T04:42:40.693Z,98.75
2018-02-07T04:43:50.638Z,98.94
2018-02-07T04:45:00.615Z,98.38
2018-02-07T04:46:10.294Z,97.62
2018-02-07T04:47:20.256Z,97.62
2018-02-07T04:48:30.193Z,97.91
2018-02-07T04:49:40.023Z,98.28
2018-02-07T04:50:49.977Z,97.53
2018-02-07T04:51:59.916Z,97.43
2018-02-07T04:53:09.346Z,98.28
2018-02-07T04:54:19.305Z,98
2018-02-07T04:55:29.247Z,98.1
2018-02-07T04:56:39.227Z,98
2018-02-07T04:57:49.156Z,98.1
2018-02-07T04:58:58.849Z,98.19
2018-02-07T05:00:08.539Z,98.1
2018-02-07T05:01:18.479Z,98.19
2018-02-07T05:02:28.166Z,97.72
2018-02-07T05:03:37.589Z,97.53
2018-02-07T05:04:47.268Z,97.43
2018-02-07T05:05:56.958Z,97.43
2018-02-07T05:07:06.902Z,97.62
2018-02-07T05:08:16.853Z,97.91
2018-02-07T05:09:26.807Z,97.81
2018-02-07T05:10:36.743Z,97.91
2018-02-07T05:11:46.697Z,97.91
2018-02-07T05:12:56.650Z,97.91
2018-02-07T05:14:06.329Z,97.81
2018-02-07T05:15:16.265Z,97.91
2018-02-07T05:16:26.197Z,98
2018-02-07T05:17:36.159Z,97.72
2018-02-07T05:18:46.113Z,97.72
2018-02-07T05:19:56.050Z,97.91
2018-02-07T05:21:06.002Z,97.81
2018-02-07T05:22:15.940Z,98
2018-02-07T05:23:25.869Z,97.43
2018-02-07T05:24:35.806Z,97.34
2018-02-07T05:25:45.768Z,97.81
2018-02-07T05:26:55.458Z,97.72
2018-02-07T05:28:05.143Z,97.72
2018-02-07T05:29:15.104Z,97.91
2018-02-07T05:30:25.052Z,98
2018-02-07T05:31:34.997Z,97.91
2018-02-07T05:32:44.944Z,97.91
2018-02-07T05:33:54.625Z,97.81
2018-02-07T05:35:04.577Z,97.91
2018-02-07T05:36:14.527Z,98
2018-02-07T05:37:24.474Z,97.62
2018-02-07T05:38:34.412Z,98.1
2018-02-07T05:39:44.363Z,98
2018-02-07T05:40:54.307Z,97.72
2018-02-07T05:42:04.249Z,97.53
2018-02-07T05:43:13.940Z,98
2018-02-07T05:44:23.624Z,97.72
2018-02-07T05:45:33.323Z,97.53
2018-02-07T05:46:43.264Z,97.91
2018-02-07T05:47:52.956Z,97.53
2018-02-07T05:49:02.908Z,97.91
2018-02-07T05:50:12.850Z,98
2018-02-07T05:51:22.535Z,98.94
2018-02-07T05:52:32.493Z,98.57
2018-02-07T05:53:41.916Z,98.66
2018-02-07T05:54:51.595Z,97.53
2018-02-07T05:56:01.301Z,98.94
2018-02-07T05:57:11.238Z,98.66
2018-02-07T05:58:21.185Z,98.57
2018-02-07T05:59:31.142Z,98.75
2018-02-07T06:00:41.096Z,98.75
2018-02-07T06:01:51.035Z,99.04
2018-02-07T06:03:00.971Z,98.94
2018-02-07T06:04:10.653Z,98.94
2018-02-07T06:05:20.603Z,98.75
2018-02-07T06:06:30.539Z,98.94
2018-02-07T06:07:39.973Z,98.75
2018-02-07T06:08:49.915Z,98.75
2018-02-07T06:09:59.916Z,98.75
2018-02-07T06:11:09.856Z,98.75
2018-02-07T06:12:19.534Z,98.85
2018-02-07T06:13:29.477Z,99.13
2018-02-07T06:14:39.417Z,99.04
2018-02-07T06:15:49.097Z,98.94
2018-02-07T06:16:59.045Z,98.47
2018-02-07T06:18:08.985Z,98.94
2018-02-07T06:19:18.935Z,99.41
2018-02-07T06:20:28.877Z,99.51
2018-02-07T06:21:38.582Z,99.41
2018-02-07T06:22:48.277Z,99.51
2018-02-07T06:23:57.961Z,99.51
2018-02-07T06:25:07.907Z,99.51
2018-02-07T06:26:17.843Z,99.99
2018-02-07T06:27:27.787Z,99.99
2018-02-07T06:28:37.727Z,99.99
2018-02-07T06:29:47.409Z,99.99
2018-02-07T06:30:57.418Z,99.99
2018-02-07T06:32:07.363Z,99.6
2018-02-07T06:33:17.048Z,99.32
2018-02-07T06:34:26.728Z,99.99
2018-02-07T06:35:36.413Z,99.6
2018-02-07T06:36:46.358Z,99.6
2018-02-07T06:37:56.290Z,99.6
2018-02-07T06:39:06.239Z,99.79
2018-02-07T06:40:16.181Z,99.32
2018-02-07T06:41:26.120Z,99.98
2018-02-07T06:42:36.319Z,99.99
2018-02-07T06:43:46.256Z,99.99
2018-02-07T06:44:55.941Z,99.99
2018-02-07T06:46:05.888Z,99.99
2018-02-07T06:47:15.857Z,99.99
2018-02-07T06:48:25.549Z,99.99
2018-02-07T06:49:35.503Z,99.99
2018-02-07T06:50:45.445Z,99.99
2018-02-07T06:51:55.408Z,99.99
2018-02-07T06:53:05.362Z,99.99
2018-02-07T06:54:15.287Z,99.99
2018-02-07T06:55:25.229Z,99.99
2018-02-07T06:56:34.650Z,99.99
2018-02-07T06:57:44.596Z,99.99
2018-02-07T06:58:54.293Z,99.99
2018-02-07T07:00:04.236Z,99.99
2018-02-07T07:01:14.167Z,99.99
2018-02-07T07:02:23.853Z,99.99
2018-02-07T07:03:33.862Z,99.99
2018-02-07T07:04:43.802Z,99.99
2018-02-07T07:05:53.503Z,99.99
2018-02-07T07:07:03.446Z,99.99
2018-02-07T07:08:13.133Z,99.99
2018-02-07T07:09:22.825Z,99.99
2018-02-07T07:10:32.774Z,99.99
2018-02-07T07:11:42.726Z,99.99
2018-02-07T07:12:52.749Z,99.99
2018-02-07T07:14:02.458Z,99.99
2018-02-07T07:15:12.417Z,99.99
2018-02-07T07:16:22.389Z,99.99
2018-02-07T07:17:32.439Z,99.99
2018-02-07T07:18:42.393Z,99.99
2018-02-07T07:19:52.330Z,99.99
2018-02-07T07:21:02.276Z,99.99
2018-02-07T07:22:12.234Z,99.99
2018-02-07T07:23:21.939Z,99.99
2018-02-07T07:24:31.875Z,99.99
2018-02-07T07:25:41.833Z,99.99
2018-02-07T07:26:51.275Z,99.99
2018-02-07T07:28:00.966Z,99.99
2018-02-07T07:29:10.917Z,99.99
2018-02-07T07:30:20.869Z,99.99
2018-02-07T07:31:30.833Z,99.99
2018-02-07T07:32:40.528Z,99.99
2018-02-07T07:33:50.464Z,99.99
2018-02-07T07:35:00.152Z,99.99
2018-02-07T07:36:10.103Z,99.99
2018-02-07T07:37:20.048Z,99.99
2018-02-07T07:38:30.017Z,99.99
2018-02-07T07:39:39.972Z,99.99
2018-02-07T07:40:49.910Z,99.99
2018-02-07T07:41:59.590Z,99.99
2018-02-07T07:43:09.303Z,99.99
2018-02-07T07:44:19.238Z,99.99
2018-02-07T07:45:29.189Z,99.99
2018-02-07T07:46:39.166Z,99.99
2018-02-07T07:47:48.870Z,99.99
2018-02-07T07:48:58.845Z,99.99
2018-02-07T07:50:08.780Z,99.99
2018-02-07T07:51:18.723Z,99.99
2018-02-07T07:52:28.410Z,99.99
2018-02-07T07:53:38.100Z,99.99
2018-02-07T07:54:48.073Z,99.99
2018-02-07T07:55:58.031Z,99.99
2018-02-07T07:57:07.990Z,99.99
2018-02-07T07:58:17.993Z,99.99
2018-02-07T07:59:27.687Z,99.99
2018-02-07T08:00:37.386Z,99.99
2018-02-07T08:01:47.088Z,99.99
2018-02-07T08:02:56.800Z,99.99
2018-02-07T08:04:06.778Z,99.99
2018-02-07T08:05:16.834Z,99.99
2018-02-07T08:06:26.779Z,99.99
2018-02-07T08:07:36.484Z,99.99
2018-02-07T08:08:46.469Z,99.99
2018-02-07T08:09:56.413Z,99.99
2018-02-07T08:11:06.372Z,99.99
2018-02-07T08:12:16.072Z,99.99
2018-02-07T08:13:26.022Z,99.65
2018-02-07T08:14:35.720Z,99.99
2018-02-07T08:15:45.691Z,99.99
2018-02-07T08:16:55.632Z,99.99
2018-02-07T08:18:05.574Z,99.46
2018-02-07T08:19:15.524Z,99.94
2018-02-07T08:20:25.215Z,99.56
2018-02-07T08:21:35.164Z,99.94
2018-02-07T08:22:45.108Z,99.56
2018-02-07T08:23:55.060Z,99.08
2018-02-07T08:25:04.762Z,99.37
2018-02-07T08:26:14.704Z,99.75
2018-02-07T08:27:24.388Z,99.84
2018-02-07T08:28:34.331Z,98.9
2018-02-07T08:29:44.272Z,98.61
2018-02-07T08:30:53.965Z,98.05
2018-02-07T08:32:03.452Z,97.96
2018-02-07T08:33:13.152Z,97.96
2018-02-07T08:34:23.111Z,98.05
2018-02-07T08:35:33.049Z,97.91
2018-02-07T08:36:42.735Z,97.96
2018-02-07T08:37:52.426Z,97.77
2018-02-07T08:39:02.378Z,97.58
2018-02-07T08:40:12.074Z,98.05
2018-02-07T08:41:22.017Z,97.72
2018-02-07T08:42:31.968Z,97.44
2018-02-07T08:43:41.902Z,98.05
2018-02-07T08:44:51.843Z,98.28
2018-02-07T08:46:01.785Z,97.81
2018-02-07T08:47:11.237Z,98.38
2018-02-07T08:48:21.173Z,98.76
2018-02-07T08:49:30.670Z,98.85
2018-02-07T08:50:40.366Z,98
2018-02-07T08:51:50.116Z,97.44
2018-02-07T08:52:59.797Z,97.25
2018-02-07T08:54:09.745Z,97.34
2018-02-07T08:55:19.436Z,97.06
2018-02-07T08:56:29.403Z,97.15
2018-02-07T08:57:39.089Z,97.15
2018-02-07T08:58:49.029Z,97.15
2018-02-07T08:59:58.983Z,97.06
2018-02-07T09:01:08.941Z,96.49
2018-02-07T09:02:18.662Z,96.68
2018-02-07T09:03:28.629Z,96.68
2018-02-07T09:04:38.395Z,96.11
2018-02-07T09:05:48.340Z,96.02
2018-02-07T09:06:58.295Z,96.96
2018-02-07T09:08:08.245Z,96.68
2018-02-07T09:09:18.207Z,95.92
2018-02-07T09:10:28.169Z,95.92
2018-02-07T09:11:38.106Z,96.21
2018-02-07T09:12:48.048Z,96.59
2018-02-07T09:13:58.005Z,96.68
2018-02-07T09:15:07.948Z,95.54
2018-02-07T09:16:17.638Z,95.17
2018-02-07T09:17:27.596Z,95.26
2018-02-07T09:18:37.546Z,95.17
2018-02-07T09:19:47.502Z,95.54
2018-02-07T09:20:57.202Z,95.03
2018-02-07T09:22:06.894Z,94.51
2018-02-07T09:23:16.847Z,94.27
2018-02-07T09:24:26.542Z,94.08
2018-02-07T09:25:36.501Z,94.46
2018-02-07T09:26:46.471Z,94.08
2018-02-07T09:27:56.443Z,93.32
2018-02-07T09:29:06.396Z,93.42
2018-02-07T09:30:16.342Z,93.32
2018-02-07T09:31:26.289Z,93.51
2018-02-07T09:32:36.239Z,93.32
2018-02-07T09:33:45.715Z,93.51
2018-02-07T09:34:55.756Z,93.23
2018-02-07T09:36:05.716Z,93.04
2018-02-07T09:37:15.427Z,92.94
2018-02-07T09:38:25.410Z,92.76
2018-02-07T09:39:35.104Z,92.38
2018-02-07T09:40:45.046Z,91.29
2018-02-07T09:41:55.010Z,91.1
2018-02-07T09:43:04.965Z,90.25
2018-02-07T09:44:14.934Z,90.63
2018-02-07T09:45:24.629Z,89.87
2018-02-07T09:46:34.588Z,88.55
2018-02-07T09:47:44.548Z,87.88
2018-02-07T09:48:54.253Z,87.55
2018-02-07T09:50:04.199Z,87.65
2018-02-07T09:51:14.201Z,85.57
2018-02-07T09:52:24.363Z,84.94
2018-02-07T09:53:34.328Z,84.28
2018-02-07T09:54:44.338Z,83.43
2018-02-07T09:55:54.306Z,84.19
2018-02-07T09:57:04.066Z,82.67
2018-02-07T09:58:14.032Z,81.95
2018-02-07T09:59:24.015Z,81.82
2018-02-07T10:00:33.972Z,82.67
2018-02-07T10:01:43.685Z,82.05
2018-02-07T10:02:53.388Z,81.1
2018-02-07T10:04:03.375Z,79.96
2018-02-07T10:05:13.338Z,78.77
2018-02-07T10:06:23.319Z,78.49
2018-02-07T10:07:33.276Z,77.64
2018-02-07T10:08:43.027Z,75.49
2018-02-07T10:09:53.010Z,74.83
2018-02-07T10:11:02.958Z,74.26
2018-02-07T10:12:12.647Z,74.45
2018-02-07T10:13:22.601Z,74.45
2018-02-07T10:14:32.563Z,75.07
2018-02-07T10:15:42.528Z,75.07
2018-02-07T10:16:52.495Z,74.16
2018-02-07T10:18:02.454Z,74.16
2018-02-07T10:19:12.153Z,74.88
2018-02-07T10:20:21.927Z,74.69
2018-02-07T10:21:31.626Z,74.88
2018-02-07T10:22:41.400Z,74.83
2018-02-07T10:23:51.099Z,74.26
2018-02-07T10:25:00.811Z,74.26
2018-02-07T10:26:10.619Z,72.49
2018-02-07T10:27:20.061Z,70.59
2018-02-07T10:28:30.016Z,70.5
2018-02-07T10:29:39.214Z,70.59
2018-02-07T10:30:49.181Z,70.59
2018-02-07T10:31:59.183Z,70.4
2018-02-07T10:33:09.138Z,70.69
2018-02-07T10:34:18.832Z,70.03
2018-02-07T10:35:28.535Z,68.54
2018-02-07T10:36:38.256Z,69.3
2018-02-07T10:37:47.963Z,69.96
2018-02-07T10:38:57.930Z,68.26
2018-02-07T10:40:07.890Z,68.44
2018-02-07T10:41:17.642Z,67.59
2018-02-07T10:42:27.629Z,66.2
2018-02-07T10:43:37.606Z,66.3
2018-02-07T10:44:47.563Z,66.3
2018-02-07T10:45:57.266Z,66.2
2018-02-07T10:47:07.238Z,66.49
2018-02-07T10:48:16.975Z,65.82
2018-02-07T10:49:26.677Z,64.62
2018-02-07T10:50:36.679Z,65
2018-02-07T10:51:46.635Z,64.05
2018-02-07T10:52:56.599Z,62.62
2018-02-07T10:54:06.564Z,62.34
2018-02-07T10:55:16.530Z,62.62
2018-02-07T10:56:26.493Z,64.11
2018-02-07T10:57:36.227Z,63.83
2018-02-07T10:58:45.939Z,63.2
2018-02-07T10:59:55.883Z,62.72
2018-02-07T11:01:05.856Z,64.02
2018-02-07T11:02:15.303Z,65.6
2018-02-07T11:03:25.276Z,67.75
2018-02-07T11:04:35.022Z,70.37
2018-02-07T11:05:44.974Z,69.8
2018-02-07T11:06:54.931Z,70.18
2018-02-07T11:08:04.928Z,70.37
2018-02-07T11:09:14.641Z,69.71
2018-02-07T11:10:24.341Z,70.69
2018-02-07T11:11:34.054Z,71.13
2018-02-07T11:12:44.002Z,71.22
2018-02-07T11:13:53.971Z,72.42
2018-02-07T11:15:03.939Z,73.18
2018-02-07T11:16:13.894Z,72.89
2018-02-07T11:17:23.856Z,72.08
2018-02-07T11:18:33.838Z,71.89
2018-02-07T11:19:43.940Z,72.42
2018-02-07T11:20:53.894Z,73.84
2018-02-07T11:22:03.588Z,74.41
2018-02-07T11:23:13.550Z,75.45
2018-02-07T11:24:22.982Z,75.26
2018-02-07T11:25:32.168Z,75.36
2018-02-07T11:26:41.879Z,75.17
2018-02-07T11:27:51.844Z,75.07
2018-02-07T11:29:01.658Z,75.55
2018-02-07T11:30:11.362Z,74.79
2018-02-07T11:31:21.073Z,75.07
2018-02-07T11:32:30.795Z,75.07
2018-02-07T11:33:40.756Z,76.31
2018-02-07T11:34:50.713Z,75.36
2018-02-07T11:36:00.452Z,75.26
2018-02-07T11:37:09.912Z,75.45
2018-02-07T11:38:19.620Z,74.98
2018-02-07T11:39:29.598Z,74.41
2018-02-07T11:40:39.555Z,74.69
2018-02-07T11:41:49.515Z,74.41
2018-02-07T11:42:59.512Z,73.6
2018-02-07T11:44:09.223Z,73.03
2018-02-07T11:45:18.924Z,73.6
2018-02-07T11:46:28.894Z,71.8
2018-02-07T11:47:38.597Z,71.6
2018-02-07T11:48:48.305Z,70.98
2018-02-07T11:49:58.260Z,71.36
2018-02-07T11:51:07.954Z,71.51
2018-02-07T11:52:17.925Z,71.17
2018-02-07T11:53:27.624Z,70.4
2018-02-07T11:54:37.578Z,70.59
2018-02-07T11:55:47.542Z,70.59
2018-02-07T11:56:57.508Z,69.36
2018-02-07T11:58:07.235Z,68.54
2018-02-07T11:59:16.702Z,67.79
2018-02-07T12:00:26.686Z,67.97
2018-02-07T12:01:36.388Z,67.59
2018-02-07T12:02:46.357Z,67.79
2018-02-07T12:03:55.820Z,68.26
2018-02-07T12:05:05.523Z,66.55
2018-02-07T12:06:15.239Z,65.98
2018-02-07T12:07:25.197Z,65.98
2018-02-07T12:08:35.167Z,66.27
2018-02-07T12:09:45.134Z,66.17
2018-02-07T12:10:55.094Z,66.17
2018-02-07T12:12:05.097Z,65.98
2018-02-07T12:13:15.057Z,67.5
2018-02-07T12:14:25.015Z,67.02
2018-02-07T12:15:34.995Z,66.27
2018-02-07T12:16:44.703Z,67.12
2018-02-07T12:17:54.410Z,68.54
2018-02-07T12:19:04.368Z,67.4
2018-02-07T12:20:14.389Z,66.01
2018-02-07T12:21:24.093Z,64.69
2018-02-07T12:22:33.554Z,64.69
2018-02-07T12:23:43.008Z,64.3
2018-02-07T12:24:53.035Z,64.4
2018-02-07T12:26:03.008Z,64.78
2018-02-07T12:27:12.707Z,64.59
2018-02-07T12:28:22.678Z,65.06
2018-02-07T12:29:32.386Z,65.25
2018-02-07T12:30:42.347Z,64.21
2018-02-07T12:31:52.338Z,64.02
2018-02-07T12:33:02.306Z,65.03
2018-02-07T12:34:12.253Z,66.08
2018-02-07T12:35:22.215Z,66.74
2018-02-07T12:36:31.653Z,66.27
2018-02-07T12:37:41.363Z,65.16
2018-02-07T12:38:51.081Z,64.21
2018-02-07T12:40:00.778Z,62.62
2018-02-07T12:41:10.745Z,61.77
2018-02-07T12:42:20.464Z,59.9
2018-02-07T12:43:30.431Z,59.9
2018-02-07T12:44:40.390Z,60.28
2018-02-07T12:45:50.097Z,61.48
2018-02-07T12:47:00.064Z,62.24
2018-02-07T12:48:10.024Z,61.68
2018-02-07T12:49:19.722Z,61.68
2018-02-07T12:50:29.707Z,62.88
2018-02-07T12:51:39.702Z,63.01
2018-02-07T12:52:49.401Z,64.02
2018-02-07T12:53:59.379Z,62.97
2018-02-07T12:55:09.328Z,62.43
2018-02-07T12:56:19.290Z,61.87
2018-02-07T12:57:29.253Z,61.2
2018-02-07T12:58:39.221Z,61.39
2018-02-07T12:59:48.949Z,61.29
2018-02-07T13:00:58.925Z,59.68
2018-02-07T13:02:08.874Z,60.53
2018-02-07T13:03:18.573Z,60.16
2018-02-07T13:04:28.273Z,60.28
2018-02-07T13:05:38.263Z,60.28
2018-02-07T13:06:48.006Z,60.38
2018-02-07T13:07:57.779Z,59.9
2018-02-07T13:09:07.756Z,59.33
2018-02-07T13:10:17.452Z,58.66
2018-02-07T13:11:27.146Z,59.05
2018-02-07T13:12:37.097Z,58.85
2018-02-07T13:13:47.046Z,58.95
2018-02-07T13:14:56.485Z,58.59
2018-02-07T13:16:06.450Z,58.59
2018-02-07T13:17:16.166Z,57.36
2018-02-07T13:18:26.121Z,57.26
2018-02-07T13:19:36.096Z,56.12
2018-02-07T13:20:46.203Z,56.05
2018-02-07T13:21:56.189Z,54.53
2018-02-07T13:23:06.145Z,53.89
2018-02-07T13:24:16.104Z,53.7
2018-02-07T13:25:26.072Z,53.52
2018-02-07T13:26:36.053Z,51.89
2018-02-07T13:27:46.023Z,51.23
2018-02-07T13:28:55.987Z,51.7
2018-02-07T13:30:05.949Z,51.73
2018-02-07T13:31:15.691Z,50.4
2018-02-07T13:32:25.651Z,50.49
2018-02-07T13:33:35.607Z,50.56
2018-02-07T13:34:45.583Z,51.14
2018-02-07T13:35:55.304Z,50.46
2018-02-07T13:37:05.293Z,50.66
2018-02-07T13:38:15.013Z,50.09
2018-02-07T13:39:24.971Z,49.61
2018-02-07T13:40:34.417Z,48.85
2018-02-07T13:41:43.868Z,48.85
2018-02-07T13:42:53.833Z,49.42
2018-02-07T13:44:03.797Z,48.75
2018-02-07T13:45:13.750Z,48.94
2018-02-07T13:46:23.702Z,48.37
2018-02-07T13:47:33.674Z,48.02
2018-02-07T13:48:43.397Z,48.08
2018-02-07T13:49:52.855Z,48.18
2018-02-07T13:51:02.827Z,50.46
2018-02-07T13:52:12.790Z,49.13
2018-02-07T13:53:22.748Z,49.04
2018-02-07T13:54:32.199Z,48.85
2018-02-07T13:55:42.209Z,49.51
2018-02-07T13:56:52.404Z,49.04
2018-02-07T13:58:02.374Z,49.04
2018-02-07T13:59:12.085Z,49.04
2018-02-07T14:00:22.054Z,48.66
2018-02-07T14:01:32.028Z,48.73
2018-02-07T14:02:41.468Z,48.82
2018-02-07T14:03:51.162Z,49.4
2018-02-07T14:05:00.904Z,49.18
2018-02-07T14:06:10.865Z,49.18
2018-02-07T14:07:20.829Z,50.04
2018-02-07T14:08:30.799Z,49.94
2018-02-07T14:09:40.757Z,49.82
2018-02-07T14:10:49.953Z,50.77
2018-02-07T14:11:59.664Z,51.31
2018-02-07T14:13:09.368Z,51.43
2018-02-07T14:14:19.328Z,51.25
2018-02-07T14:15:28.808Z,52.01
2018-02-07T14:16:38.504Z,52.58
2018-02-07T14:17:48.213Z,52.48
2018-02-07T14:18:58.176Z,52.67
2018-02-07T14:20:08.132Z,52.1
2018-02-07T14:21:18.091Z,51.25
2018-02-07T14:22:28.204Z,51.43
2018-02-07T14:23:37.938Z,51.72
2018-02-07T14:24:47.896Z,51.43
2018-02-07T14:25:57.883Z,51.15
2018-02-07T14:27:07.579Z,51.06
2018-02-07T14:28:17.586Z,51.72
2018-02-07T14:29:27.568Z,53.59
2018-02-07T14:30:37.525Z,54.33
2018-02-07T14:31:46.994Z,54.71
2018-02-07T14:32:56.981Z,53.95
2018-02-07T14:34:06.938Z,53.59
2018-02-07T14:35:16.912Z,53.38
2018-02-07T14:36:26.862Z,54.33
2018-02-07T14:37:36.576Z,53.95
2018-02-07T14:38:46.276Z,55.09
2018-02-07T14:39:55.972Z,54.33
2018-02-07T14:41:05.678Z,55.18
2018-02-07T14:42:15.641Z,55.66
2018-02-07T14:43:25.589Z,55.57
2018-02-07T14:44:35.631Z,56.04
2018-02-07T14:45:45.599Z,56.77
2018-02-07T14:46:55.301Z,57.24
2018-02-07T14:48:05.281Z,57.43
2018-02-07T14:49:15.252Z,57.46
2018-02-07T14:50:24.960Z,57.75
2018-02-07T14:51:34.972Z,57.56
2018-02-07T14:52:44.681Z,58.89
2018-02-07T14:53:54.394Z,59.24
2018-02-07T14:55:04.123Z,59.91
2018-02-07T14:56:14.074Z,60.85
2018-02-07T14:57:23.781Z,60.95
2018-02-07T14:58:33.494Z,60.28
2018-02-07T14:59:43.000Z,59.81
2018-02-07T15:00:52.947Z,60.38
2018-02-07T15:02:02.926Z,60.38
2018-02-07T15:03:12.629Z,61.2